createdAt,value
2022-10-04T00:01:45.002Z,70.43
2022-10-04T00:04:15.739Z,70.84
2022-10-04T00:06:53.265Z,70.41
2022-10-04T00:09:23.870Z,69.75
2022-10-04T00:11:54.280Z,69.99
2022-10-04T00:14:27.603Z,70.46
2022-10-04T00:16:56.064Z,70.20
2022-10-04T00:19:42.691Z,70.48
2022-10-04T00:22:17.998Z,71.10
2022-10-04T00:25:12.037Z,70.74
2022-10-04T00:27:39.624Z,70.84
2022-10-04T00:30:05.998Z,70.49
2022-10-04T00:32:38.312Z,70.92
2022-10-04T00:35:24.683Z,71.13
2022-10-04T00:38:06.232Z,70.81
2022-10-04T00:40:34.644Z,71.57
2022-10-04T00:43:13.773Z,71.18
2022-10-04T00:45:46.191Z,71.46
2022-10-04T00:48:28.988Z,70.95
2022-10-04T00:51:22.657Z,71.55
2022-10-04T00:54:04.087Z,71.47
2022-10-04T00:56:51.378Z,72.00
2022-10-04T00:59:55.763Z,71.69
2022-10-04T01:02:29.096Z,71.53
2022-10-04T01:05:04.132Z,71.63
2022-10-04T01:07:38.408Z,71.60
2022-10-04T01:10:18.421Z,72.09
2022-10-04T01:13:09.231Z,72.16
2022-10-04T01:15:59.917Z,72.20
2022-10-04T01:18:26.348Z,71.75
2022-10-04T01:20:57.597Z,72.26
2022-10-04T01:23:53.275Z,72.75
2022-10-04T01:26:28.633Z,72.87
2022-10-04T01:29:24.748Z,72.64
2022-10-04T01:31:53.572Z,72.52
2022-10-04T01:34:22.772Z,72.84
2022-10-04T01:36:51.396Z,72.61
2022-10-04T01:39:20.266Z,72.30
2022-10-04T01:42:15.177Z,72.70
2022-10-04T01:44:49.342Z,73.03
2022-10-04T01:47:23.025Z,73.27
2022-10-04T01:49:51.749Z,73.09
2022-10-04T01:52:23.763Z,73.38
2022-10-04T01:54:59.309Z,73.76
2022-10-04T01:57:33.448Z,73.61
2022-10-04T02:00:04.824Z,74.06
2022-10-04T02:02:31.212Z,73.64
2022-10-04T02:04:59.366Z,73.75
2022-10-04T02:07:31.829Z,73.90
2022-10-04T02:10:02.875Z,74.08
2022-10-04T02:12:30.915Z,74.23
2022-10-04T02:15:00.907Z,74.46
2022-10-04T02:17:31.307Z,74.30
2022-10-04T02:20:00.440Z,74.26
2022-10-04T02:22:27.321Z,74.04
2022-10-04T02:24:56.701Z,74.35
2022-10-04T02:27:27.992Z,74.67
2022-10-04T02:30:07.856Z,74.85
2022-10-04T02:32:35.965Z,74.72
2022-10-04T02:35:03.909Z,74.35
2022-10-04T02:37:30.557Z,74.85
2022-10-04T02:40:06.016Z,75.14
2022-10-04T02:42:54.162Z,75.38
2022-10-04T02:45:36.360Z,75.33
2022-10-04T02:48:25.657Z,75.33
2022-10-04T02:50:55.807Z,75.06
2022-10-04T02:53:29.847Z,75.26
2022-10-04T02:55:57.594Z,75.21
2022-10-04T02:58:25.974Z,75.36
2022-10-04T03:00:57.799Z,75.23
2022-10-04T03:03:37.115Z,75.63
2022-10-04T03:06:09.168Z,75.32
2022-10-04T03:08:43.050Z,75.20
2022-10-04T03:11:11.338Z,75.59
2022-10-04T03:13:40.226Z,75.85
2022-10-04T03:16:06.832Z,75.41
2022-10-04T03:18:36.014Z,75.50
2022-10-04T03:21:06.822Z,75.47
2022-10-04T03:23:34.155Z,75.17
2022-10-04T03:26:06.686Z,75.43
2022-10-04T03:28:33.295Z,75.48
2022-10-04T03:31:00.793Z,75.28
2022-10-04T03:33:27.490Z,75.22
2022-10-04T03:35:57.230Z,75.27
2022-10-04T03:38:24.925Z,75.67
2022-10-04T03:40:55.419Z,75.40
2022-10-04T03:43:32.950Z,75.63
2022-10-04T03:46:01.989Z,75.48
2022-10-04T03:48:35.682Z,75.70
2022-10-04T03:51:04.990Z,75.67
2022-10-04T03:53:33.027Z,75.43
2022-10-04T03:56:04.265Z,75.99
2022-10-04T03:58:31.839Z,75.93
2022-10-04T04:01:23.128Z,75.61
2022-10-04T04:04:01.647Z,75.87
2022-10-04T04:06:40.574Z,75.96
2022-10-04T04:09:08.827Z,75.92
2022-10-04T04:11:36.687Z,75.77
2022-10-04T04:14:15.304Z,76.18
2022-10-04T04:16:41.887Z,75.81
2022-10-04T04:19:15.578Z,75.86
2022-10-04T04:21:42.487Z,76.00
2022-10-04T04:24:21.635Z,76.11
2022-10-04T04:26:52.680Z,76.19
2022-10-04T04:29:26.217Z,76.35
2022-10-04T04:32:06.683Z,76.24
2022-10-04T04:34:48.573Z,76.57
2022-10-04T04:37:15.168Z,76.76
2022-10-04T04:39:41.600Z,76.32
2022-10-04T04:42:11.036Z,76.70
2022-10-04T04:45:03.352Z,77.34
2022-10-04T04:47:31.853Z,76.84
2022-10-04T04:50:04.968Z,77.25
2022-10-04T04:52:32.557Z,77.13
2022-10-04T04:54:59.861Z,77.71
2022-10-04T04:57:26.644Z,77.74
2022-10-04T04:59:59.681Z,78.02
2022-10-04T05:02:37.786Z,78.03
2022-10-04T05:05:25.403Z,78.36
2022-10-04T05:08:10.425Z,78.29
2022-10-04T05:10:39.624Z,77.96
2022-10-04T05:13:06.589Z,77.83
2022-10-04T05:15:41.120Z,77.87
2022-10-04T05:18:16.494Z,77.77
2022-10-04T05:20:48.342Z,78.01
2022-10-04T05:23:14.892Z,77.91
2022-10-04T05:25:41.592Z,77.89
2022-10-04T05:28:12.141Z,78.05
2022-10-04T05:30:45.843Z,78.00
2022-10-04T05:33:18.616Z,77.93
2022-10-04T05:36:10.068Z,78.14
2022-10-04T05:38:46.839Z,77.81
2022-10-04T05:41:36.611Z,78.57
2022-10-04T05:44:19.844Z,78.38
2022-10-04T05:46:46.862Z,78.44
2022-10-04T05:49:19.182Z,78.21
2022-10-04T05:51:53.283Z,77.98
2022-10-04T05:54:23.057Z,78.04
2022-10-04T05:57:18.492Z,78.27
2022-10-04T06:00:01.821Z,78.48
2022-10-04T06:03:21.648Z,78.38
2022-10-04T06:06:01.275Z,78.09
2022-10-04T06:08:33.813Z,77.97
2022-10-04T06:11:23.338Z,78.28
2022-10-04T06:13:59.370Z,78.32
2022-10-04T06:16:54.609Z,78.60
2022-10-04T06:20:02.623Z,78.64
2022-10-04T06:22:30.423Z,78.48
2022-10-04T06:25:06.982Z,78.45
2022-10-04T06:27:37.718Z,78.37
2022-10-04T06:30:15.080Z,78.55
2022-10-04T06:32:59.599Z,78.21
2022-10-04T06:35:35.110Z,78.17
2022-10-04T06:38:20.171Z,77.67
2022-10-04T06:41:20.149Z,77.10
2022-10-04T06:44:17.060Z,76.42
2022-10-04T06:46:50.037Z,76.09
2022-10-04T06:49:40.643Z,75.48
2022-10-04T06:52:32.263Z,74.51
2022-10-04T06:55:07.970Z,73.89
2022-10-04T06:57:40.206Z,73.86
2022-10-04T07:00:22.661Z,73.21
2022-10-04T07:03:14.502Z,72.69
2022-10-04T07:05:58.340Z,72.91
2022-10-04T07:08:35.018Z,72.42
2022-10-04T07:11:06.533Z,72.80
2022-10-04T07:13:51.184Z,72.31
2022-10-04T07:16:48.398Z,72.07
2022-10-04T07:19:39.139Z,71.73
2022-10-04T07:22:08.341Z,71.83
2022-10-04T07:24:53.484Z,71.17
2022-10-04T07:27:42.774Z,70.63
2022-10-04T07:30:16.530Z,70.65
2022-10-04T07:32:48.726Z,70.91
2022-10-04T07:35:38.639Z,70.31
2022-10-04T07:38:13.755Z,70.40
2022-10-04T07:40:58.633Z,70.32
2022-10-04T07:43:30.358Z,69.86
2022-10-04T07:46:13.741Z,69.66
2022-10-04T07:48:41.266Z,69.95
2022-10-04T07:51:22.760Z,69.65
2022-10-04T07:53:53.617Z,69.18
2022-10-04T07:56:35.183Z,69.24
2022-10-04T07:59:20.390Z,69.30
2022-10-04T08:01:54.001Z,69.66
2022-10-04T08:04:40.042Z,69.10
2022-10-04T08:07:21.608Z,69.64
2022-10-04T08:09:54.308Z,68.92
2022-10-04T08:12:26.911Z,69.25
2022-10-04T08:15:13.397Z,68.85
2022-10-04T08:18:17.490Z,68.08
2022-10-04T08:21:05.569Z,68.79
2022-10-04T08:24:01.604Z,67.79
2022-10-04T08:26:56.289Z,68.02
2022-10-04T08:29:42.993Z,68.04
2022-10-04T08:32:57.584Z,67.68
2022-10-04T08:35:36.283Z,67.06
2022-10-04T08:38:33.539Z,66.65
2022-10-04T08:41:37.755Z,66.50
2022-10-04T08:44:35.138Z,66.54
2022-10-04T08:47:49.588Z,66.64
2022-10-04T08:50:37.802Z,66.89
2022-10-04T08:53:32.055Z,66.22
2022-10-04T08:56:19.951Z,66.26
2022-10-04T08:59:21.800Z,65.96
2022-10-04T09:02:07.139Z,66.22
2022-10-04T09:04:41.275Z,65.85
2022-10-04T09:07:16.670Z,65.88
2022-10-04T09:10:01.907Z,66.12
2022-10-04T09:12:56.252Z,65.26
2022-10-04T09:15:35.124Z,65.80
2022-10-04T09:18:12.502Z,65.58
2022-10-04T09:20:56.243Z,65.95
2022-10-04T09:23:57.758Z,65.42
2022-10-04T09:26:39.947Z,65.24
2022-10-04T09:29:15.288Z,65.83
2022-10-04T09:32:19.092Z,64.81
2022-10-04T09:35:00.500Z,64.69
2022-10-04T09:37:39.051Z,64.83
2022-10-04T09:40:47.325Z,64.68
2022-10-04T09:43:50.095Z,64.51
2022-10-04T09:46:19.347Z,64.48
2022-10-04T09:49:22.795Z,65.04
2022-10-04T09:51:57.815Z,65.11
2022-10-04T09:54:45.890Z,64.37
2022-10-04T09:57:31.289Z,64.37
2022-10-04T10:00:16.084Z,65.24
2022-10-04T10:03:15.935Z,64.94
2022-10-04T10:06:04.224Z,64.87
2022-10-04T10:09:09.139Z,64.21
2022-10-04T10:12:05.116Z,64.21
2022-10-04T10:14:55.732Z,63.42
2022-10-04T10:17:50.337Z,63.26
2022-10-04T10:20:28.622Z,63.50
2022-10-04T10:23:04.537Z,62.23
2022-10-04T10:25:40.013Z,63.14
2022-10-04T10:28:26.729Z,62.15
2022-10-04T10:31:32.398Z,62.21
2022-10-04T10:34:31.412Z,61.88
2022-10-04T10:37:24.042Z,62.36
2022-10-04T10:40:09.313Z,62.38
2022-10-04T10:42:41.590Z,62.62
2022-10-04T10:45:29.211Z,62.24
2022-10-04T10:47:58.397Z,62.89
2022-10-04T10:50:53.001Z,63.25
2022-10-04T10:53:57.129Z,62.42
2022-10-04T10:56:42.625Z,63.28
2022-10-04T10:59:51.200Z,63.30
2022-10-04T11:02:48.958Z,62.90
2022-10-04T11:05:54.372Z,62.96
2022-10-04T11:08:39.570Z,62.71
2022-10-04T11:11:18.145Z,62.41
2022-10-04T11:13:56.696Z,62.36
2022-10-04T11:16:48.229Z,61.64
2022-10-04T11:19:30.028Z,62.50
2022-10-04T11:22:11.469Z,61.80
2022-10-04T11:25:00.214Z,61.44
2022-10-04T11:27:39.498Z,62.16
2022-10-04T11:30:21.121Z,61.81
2022-10-04T11:33:23.950Z,61.49
2022-10-04T11:36:05.351Z,62.06
2022-10-04T11:39:10.265Z,62.11
2022-10-04T11:41:42.650Z,62.35
2022-10-04T11:44:39.662Z,61.79
2022-10-04T11:47:53.523Z,61.32
2022-10-04T11:50:34.990Z,62.15
2022-10-04T11:53:20.204Z,62.04
2022-10-04T11:55:55.783Z,62.02
2022-10-04T11:58:46.352Z,61.28
2022-10-04T12:01:39.538Z,62.17
2022-10-04T12:04:06.098Z,61.76
2022-10-04T12:06:35.335Z,61.35
2022-10-04T12:09:01.753Z,61.65
2022-10-04T12:11:28.134Z,61.16
2022-10-04T12:14:30.077Z,60.95
2022-10-04T12:17:11.721Z,61.70
2022-10-04T12:19:51.382Z,61.38
2022-10-04T12:22:29.099Z,61.34
2022-10-04T12:24:58.304Z,60.72
2022-10-04T12:27:35.534Z,61.07
2022-10-04T12:30:14.511Z,61.00
2022-10-04T12:32:52.250Z,60.50
2022-10-04T12:35:33.887Z,60.83
2022-10-04T12:38:16.443Z,61.06
2022-10-04T12:41:07.659Z,60.29
2022-10-04T12:43:40.183Z,60.72
2022-10-04T12:46:25.019Z,60.94
2022-10-04T12:49:06.941Z,61.18
2022-10-04T12:51:33.355Z,60.79
2022-10-04T12:54:35.226Z,60.13
2022-10-04T12:57:13.420Z,60.59
2022-10-04T12:59:47.621Z,60.31
2022-10-04T13:02:41.845Z,59.98
2022-10-04T13:05:24.873Z,59.18
2022-10-04T13:08:39.231Z,58.90
2022-10-04T13:11:05.644Z,59.34
2022-10-04T13:13:55.405Z,59.13
2022-10-04T13:20:00.268Z,58.58
2022-10-04T13:22:56.587Z,58.66
2022-10-04T13:25:38.944Z,58.68
2022-10-04T13:28:05.415Z,58.38
2022-10-04T13:31:15.478Z,57.84
2022-10-04T13:34:07.160Z,57.75
2022-10-04T13:36:50.479Z,58.13
2022-10-04T13:39:24.072Z,57.38
2022-10-04T13:42:21.614Z,57.40
2022-10-04T13:45:06.238Z,57.50
2022-10-04T13:47:56.481Z,57.15
2022-10-04T13:50:58.108Z,57.35
2022-10-04T13:53:38.711Z,57.25
2022-10-04T13:56:11.061Z,57.47
2022-10-04T13:58:48.292Z,57.25
2022-10-04T14:01:20.923Z,56.44
2022-10-04T14:03:59.751Z,56.20
2022-10-04T14:06:52.905Z,56.40
2022-10-04T14:09:19.306Z,56.15
2022-10-04T14:12:04.333Z,56.22
2022-10-04T14:15:09.538Z,56.86
2022-10-04T14:18:14.698Z,57.30
2022-10-04T14:21:16.688Z,57.13
2022-10-04T14:24:10.395Z,56.96
2022-10-04T14:26:48.967Z,56.38
2022-10-04T14:29:25.030Z,56.59
2022-10-04T14:32:02.423Z,56.74
2022-10-04T14:35:02.464Z,56.52
2022-10-04T14:37:41.056Z,56.83
2022-10-04T14:40:45.118Z,56.86
2022-10-04T14:43:42.719Z,56.61
2022-10-04T14:46:23.559Z,57.69
2022-10-04T14:48:58.863Z,57.02
2022-10-04T14:51:43.406Z,57.82
2022-10-04T14:54:46.741Z,57.41
2022-10-04T14:57:21.517Z,57.33
2022-10-04T15:00:15.963Z,57.26
2022-10-04T15:02:54.317Z,57.62
2022-10-04T15:05:42.676Z,57.14
2022-10-04T15:08:12.182Z,57.20
2022-10-04T15:10:49.787Z,56.65
2022-10-04T15:13:34.248Z,56.79
2022-10-04T15:16:19.007Z,56.73
2022-10-04T15:18:51.618Z,56.86
2022-10-04T15:21:39.693Z,57.31
2022-10-04T15:24:18.105Z,56.22
2022-10-04T15:27:09.778Z,56.75
2022-10-04T15:30:00.023Z,57.31
2022-10-04T15:33:08.692Z,56.94
2022-10-04T15:35:59.445Z,56.55
2022-10-04T15:38:39.556Z,56.10
2022-10-04T15:41:17.799Z,56.38
2022-10-04T15:44:05.423Z,56.31
2022-10-04T15:47:13.365Z,55.93
2022-10-04T15:50:07.694Z,56.69
2022-10-04T15:52:48.673Z,56.51
2022-10-04T15:55:20.876Z,56.72
2022-10-04T15:57:47.310Z,56.86
2022-10-04T16:00:27.959Z,56.73
2022-10-04T16:03:16.107Z,56.57
2022-10-04T16:05:48.963Z,56.50
2022-10-04T16:08:27.776Z,56.71
2022-10-04T16:11:06.397Z,56.59
2022-10-04T16:13:57.528Z,56.34
2022-10-04T16:16:45.181Z,57.15
2022-10-04T16:19:23.750Z,57.26
2022-10-04T16:21:54.445Z,57.74
2022-10-04T16:24:20.870Z,57.01
2022-10-04T16:26:47.747Z,57.26
2022-10-04T16:29:36.427Z,56.99
2022-10-04T16:32:17.773Z,56.60
2022-10-04T16:34:50.199Z,57.39
2022-10-04T16:37:16.658Z,57.50
2022-10-04T16:39:43.043Z,57.64
2022-10-04T16:42:15.493Z,57.92
2022-10-04T16:44:57.150Z,57.67
2022-10-04T16:47:30.651Z,58.41
2022-10-04T16:50:00.296Z,57.68
2022-10-04T16:52:35.525Z,58.68
2022-10-04T16:55:29.090Z,58.14
2022-10-04T16:58:26.578Z,58.91
2022-10-04T17:01:24.017Z,59.36
2022-10-04T17:04:02.508Z,58.82
2022-10-04T17:06:56.307Z,58.99
2022-10-04T17:09:30.084Z,59.75
2022-10-04T17:12:08.629Z,59.37
2022-10-04T17:14:46.483Z,60.32
2022-10-04T17:17:23.468Z,60.08
2022-10-04T17:19:56.282Z,59.87
2022-10-04T17:22:41.885Z,60.67
2022-10-04T17:25:20.412Z,60.25
2022-10-04T17:27:52.902Z,60.75
2022-10-04T17:30:30.491Z,60.16
2022-10-04T17:33:15.854Z,60.32
2022-10-04T17:35:57.501Z,60.18
2022-10-04T17:38:51.744Z,60.25
2022-10-04T17:41:30.201Z,60.57
2022-10-04T17:44:23.282Z,61.16
2022-10-04T17:47:36.400Z,60.75
2022-10-04T17:50:13.751Z,61.11
2022-10-04T17:52:54.457Z,61.19
2022-10-04T17:55:35.780Z,61.51
2022-10-04T17:58:04.798Z,61.59
2022-10-04T18:00:51.788Z,61.92
2022-10-04T18:03:24.334Z,61.99
2022-10-04T18:05:56.983Z,62.60
2022-10-04T18:08:50.996Z,62.30
2022-10-04T18:11:20.897Z,62.57
2022-10-04T18:13:57.810Z,62.66
2022-10-04T18:16:47.785Z,62.60
2022-10-04T18:19:43.115Z,62.90
2022-10-04T18:22:18.400Z,63.07
2022-10-04T18:24:47.299Z,63.47
2022-10-04T18:27:25.236Z,63.95
2022-10-04T18:30:14.594Z,63.62
2022-10-04T18:32:52.045Z,63.56
2022-10-04T18:35:30.438Z,64.17
2022-10-04T18:38:18.421Z,64.26
2022-10-04T18:40:58.603Z,64.16
2022-10-04T18:43:30.182Z,64.29
2022-10-04T18:46:01.095Z,64.82
2022-10-04T18:48:58.326Z,64.58
2022-10-04T18:51:37.350Z,64.62
2022-10-04T18:54:09.917Z,65.18
2022-10-04T18:56:47.005Z,65.38
2022-10-04T18:59:20.242Z,65.75
2022-10-04T19:02:17.861Z,65.87
2022-10-04T19:05:13.715Z,66.23
2022-10-04T19:07:47.310Z,65.53
2022-10-04T19:10:21.440Z,65.80
2022-10-04T19:13:15.490Z,66.22
2022-10-04T19:15:44.461Z,66.00
2022-10-04T19:18:36.051Z,66.71
2022-10-04T19:21:08.362Z,66.32
2022-10-04T19:23:41.269Z,66.46
2022-10-04T19:26:31.518Z,66.60
2022-10-04T19:29:18.095Z,67.01
2022-10-04T19:31:59.263Z,66.75
2022-10-04T19:34:37.931Z,66.40
2022-10-04T19:37:19.559Z,66.68
2022-10-04T19:39:51.951Z,66.75
2022-10-04T19:42:27.707Z,66.92
2022-10-04T19:45:25.170Z,67.46
2022-10-04T19:47:57.022Z,67.27
2022-10-04T19:50:48.555Z,67.43
2022-10-04T19:53:19.362Z,67.72
2022-10-04T19:55:59.309Z,67.22
2022-10-04T19:58:43.489Z,67.63
2022-10-04T20:01:21.488Z,66.97
2022-10-04T20:03:48.362Z,66.75
2022-10-04T20:06:21.943Z,67.08
2022-10-04T20:09:02.322Z,66.80
2022-10-04T20:11:41.589Z,66.96
2022-10-04T20:14:17.160Z,67.38
2022-10-04T20:16:47.010Z,67.21
2022-10-04T20:19:43.112Z,67.73
2022-10-04T20:22:12.255Z,67.98
2022-10-04T20:24:38.616Z,68.02
2022-10-04T20:27:24.819Z,68.01
2022-10-04T20:29:51.211Z,67.58
2022-10-04T20:32:26.679Z,67.71
2022-10-04T20:34:55.054Z,67.86
2022-10-04T20:37:21.664Z,67.81
2022-10-04T20:39:48.101Z,68.17
2022-10-04T20:42:28.019Z,68.15
2022-10-04T20:45:22.026Z,68.14
2022-10-04T20:47:50.831Z,68.02
2022-10-04T20:50:19.341Z,68.09
2022-10-04T20:52:52.270Z,68.65
2022-10-04T20:55:30.999Z,68.53
2022-10-04T20:58:03.230Z,68.13
2022-10-04T21:00:32.514Z,68.27
2022-10-04T21:03:17.207Z,68.50
2022-10-04T21:05:47.764Z,68.28
2022-10-04T21:08:23.412Z,68.83
2022-10-04T21:11:22.342Z,68.44
2022-10-04T21:13:48.741Z,68.51
2022-10-04T21:16:38.716Z,68.79
2022-10-04T21:19:33.241Z,69.03
2022-10-04T21:22:04.350Z,68.55
2022-10-04T21:25:01.451Z,69.00
2022-10-04T21:27:39.090Z,68.85
2022-10-04T21:30:12.353Z,68.82
2022-10-04T21:32:39.030Z,69.05
2022-10-04T21:35:06.958Z,69.30
2022-10-04T21:37:34.465Z,68.85
2022-10-04T21:40:01.287Z,69.28
2022-10-04T21:42:29.059Z,69.30
2022-10-04T21:44:55.537Z,69.47
2022-10-04T21:47:21.989Z,69.62
2022-10-04T21:49:51.655Z,69.50
2022-10-04T21:52:18.378Z,68.93
2022-10-04T21:54:45.361Z,69.81
2022-10-04T21:57:12.853Z,69.28
2022-10-04T21:59:39.364Z,69.27
2022-10-04T22:02:05.925Z,69.22
2022-10-04T22:04:32.440Z,69.82
2022-10-04T22:06:58.852Z,69.73
2022-10-04T22:09:25.340Z,70.00
2022-10-04T22:11:51.771Z,69.93
2022-10-04T22:14:18.235Z,69.71
2022-10-04T22:16:45.027Z,69.80
2022-10-04T22:19:11.811Z,69.73
2022-10-04T22:21:38.249Z,70.05
2022-10-04T22:24:14.868Z,70.12
2022-10-04T22:26:41.349Z,69.79
2022-10-04T22:29:12.971Z,70.16
2022-10-04T22:31:43.322Z,70.34
2022-10-04T22:34:17.103Z,69.99
2022-10-04T22:36:44.174Z,69.88
2022-10-04T22:39:14.647Z,70.12
2022-10-04T22:41:44.996Z,69.87
2022-10-04T22:44:43.900Z,69.63
2022-10-04T22:47:13.392Z,70.00
2022-10-04T22:49:42.819Z,69.54
2022-10-04T22:52:20.841Z,69.71
2022-10-04T22:54:49.612Z,70.02
2022-10-04T22:57:18.018Z,70.44
2022-10-04T22:59:47.286Z,69.76
2022-10-04T23:02:24.872Z,70.17
2022-10-04T23:04:54.234Z,69.90
2022-10-04T23:07:21.224Z,69.87
2022-10-04T23:09:48.211Z,69.98
2022-10-04T23:12:15.086Z,69.76
2022-10-04T23:14:41.661Z,70.11
2022-10-04T23:17:24.965Z,69.62
2022-10-04T23:19:57.682Z,69.81
2022-10-04T23:22:28.225Z,69.90
2022-10-04T23:24:55.629Z,69.84
2022-10-04T23:27:22.723Z,69.42
2022-10-04T23:30:01.198Z,69.81
2022-10-04T23:32:28.148Z,69.54
2022-10-04T23:34:56.836Z,69.57
2022-10-04T23:37:27.206Z,69.75
2022-10-04T23:39:53.978Z,69.21
2022-10-04T23:42:24.739Z,69.69
2022-10-04T23:44:52.007Z,69.56
2022-10-04T23:47:19.589Z,69.63
2022-10-04T23:49:49.889Z,69.36
2022-10-04T23:52:21.272Z,69.65
2022-10-04T23:54:49.303Z,69.57
2022-10-04T23:57:23.227Z,69.47
2022-10-04T23:59:49.872Z,69.21
